Time;durP1;ratioP1;P1;durP2;ratioP2;P2;SDS_P1;SDS_P2;PMS_P1;PMS_P2;Temp;Humidity;BMP_temperature;BMP_pressure;BME280_temperature;BME280_humidity;BME280_pressure;Samples;Min_cycle;Max_cycle;Signal;HPM_P1;HPM_P2
2022/07/14 00:00:51;;;;;;;679.30;366.30;;;17.50;1.00;;;;;;5035126;28;20554;-89
2022/07/14 00:03:18;;;;;;;684.33;362.87;;;17.40;1.00;;;;;;5035292;28;20204;-88
2022/07/14 00:05:47;;;;;;;679.93;362.13;;;17.40;1.00;;;;;;5035223;28;20221;-89
2022/07/14 00:08:14;;;;;;;679.37;359.03;;;17.30;1.00;;;;;;5034928;28;20201;-87
2022/07/14 00:10:41;;;;;;;681.03;357.87;;;17.30;1.00;;;;;;5034481;28;20196;-87
2022/07/14 00:13:08;;;;;;;675.37;345.77;;;17.30;1.00;;;;;;5034777;28;20207;-87
2022/07/14 00:15:35;;;;;;;674.63;352.23;;;17.20;1.00;;;;;;5035111;28;20201;-88
2022/07/14 00:18:02;;;;;;;676.40;348.40;;;17.20;1.00;;;;;;5035078;28;20203;-89
2022/07/14 00:20:29;;;;;;;671.17;338.33;;;17.20;1.00;;;;;;5034891;28;20201;-88
2022/07/14 00:22:58;;;;;;;678.33;347.37;;;17.10;1.00;;;;;;5034973;28;20204;-88
2022/07/14 00:25:25;;;;;;;672.63;346.63;;;17.10;1.00;;;;;;5035057;28;20227;-87
2022/07/14 00:27:53;;;;;;;672.77;347.73;;;17.00;1.00;;;;;;5035193;28;20226;-88
2022/07/14 00:30:21;;;;;;;672.77;341.13;;;17.00;1.00;;;;;;5034969;28;20196;-88
2022/07/14 00:32:48;;;;;;;675.40;343.50;;;16.90;1.00;;;;;;5034470;28;20241;-88
2022/07/14 00:35:15;;;;;;;672.03;342.20;;;16.90;1.00;;;;;;5034844;28;20199;-88
2022/07/14 00:37:43;;;;;;;673.27;337.93;;;16.80;1.00;;;;;;5034421;28;20646;-89
2022/07/14 00:40:12;;;;;;;676.40;341.63;;;16.80;1.00;;;;;;5034348;28;20203;-88
2022/07/14 00:42:43;;;;;;;673.13;337.43;;;16.80;21.30;;;;;;5034839;28;20204;-88
2022/07/14 00:45:11;;;;;;;673.00;337.97;;;16.70;1.00;;;;;;5034575;28;20203;-88
2022/07/14 00:47:39;;;;;;;668.60;330.23;;;16.70;1.00;;;;;;5034519;28;20226;-89
2022/07/14 00:50:08;;;;;;;671.60;331.53;;;16.60;8.10;;;;;;5034452;28;20198;-87
2022/07/14 00:52:35;;;;;;;672.13;331.20;;;16.60;1.00;;;;;;5034030;28;20196;-88
2022/07/14 00:55:03;;;;;;;670.93;326.93;;;16.50;1.00;;;;;;5034060;28;20692;-88
2022/07/14 00:57:31;;;;;;;;;;;16.40;1.00;;;;;;5034362;28;20091;-88
2022/07/14 00:59:58;;;;;;;672.73;329.23;;;16.40;1.00;;;;;;5034271;28;20279;-89
2022/07/14 01:02:25;;;;;;;674.40;333.50;;;16.30;1.00;;;;;;5034484;28;20208;-88
2022/07/14 01:04:52;;;;;;;673.63;327.73;;;16.20;1.00;;;;;;5034511;28;20201;-89
2022/07/14 01:07:20;;;;;;;670.67;327.00;;;16.20;1.00;;;;;;5033876;28;20304;-89
2022/07/14 01:09:48;;;;;;;669.80;322.03;;;16.10;30.30;;;;;;5033933;28;20601;-88
2022/07/14 01:12:15;;;;;;;671.13;323.00;;;16.10;57.40;;;;;;5034082;28;20193;-88
2022/07/14 01:14:44;;;;;;;673.40;322.27;;;16.00;96.30;;;;;;5034172;28;20220;-89
2022/07/14 01:17:12;;;;;;;673.87;322.67;;;16.00;99.90;;;;;;5033878;28;20287;-88
2022/07/14 01:19:39;;;;;;;672.30;321.03;;;15.90;99.90;;;;;;5034160;28;20624;-88
2022/07/14 01:22:08;;;;;;;671.13;315.70;;;15.90;99.90;;;;;;5033489;28;20196;-88
2022/07/14 01:24:35;;;;;;;669.87;317.03;;;15.80;99.90;;;;;;5033293;28;20228;-88
2022/07/14 01:27:03;;;;;;;668.93;316.27;;;15.70;99.90;;;;;;5033755;28;20274;-87
2022/07/14 01:29:30;;;;;;;667.37;313.77;;;15.70;99.90;;;;;;5033519;28;20197;-87
2022/07/14 01:31:57;;;;;;;670.60;310.57;;;15.60;99.90;;;;;;5033933;28;20255;-88
2022/07/14 01:34:24;;;;;;;671.53;307.43;;;15.50;99.90;;;;;;5033843;28;20196;-88
2022/07/14 01:36:52;;;;;;;;;;;15.50;99.90;;;;;;5034178;28;20100;-89
2022/07/14 01:39:21;;;;;;;673.23;306.27;;;15.40;99.90;;;;;;5033145;28;20694;-88
2022/07/14 01:41:49;;;;;;;670.77;308.40;;;15.30;99.90;;;;;;5033653;28;20204;-89
2022/07/14 01:44:16;;;;;;;674.67;307.00;;;15.30;99.90;;;;;;5033543;28;20254;-88
2022/07/14 01:46:43;;;;;;;670.77;305.07;;;15.20;99.90;;;;;;5033547;28;20224;-89
2022/07/14 01:49:11;;;;;;;666.17;299.17;;;15.20;99.90;;;;;;5033507;28;20641;-88
2022/07/14 01:51:38;;;;;;;664.20;292.50;;;15.10;99.90;;;;;;5033197;28;20199;-88
2022/07/14 01:54:05;;;;;;;665.73;292.53;;;15.10;99.90;;;;;;5033236;28;20196;-88
2022/07/14 01:56:38;;;;;;;664.53;297.47;;;15.00;99.90;;;;;;5033190;28;20246;-88
2022/07/14 01:59:05;;;;;;;665.00;288.10;;;15.00;99.90;;;;;;5033529;28;20213;-87
2022/07/14 02:01:41;;;;;;;;;;;14.90;1.00;;;;;;5033311;28;20199;-89
2022/07/14 02:04:10;;;;;;;664.27;287.60;;;14.90;99.90;;;;;;5033242;28;20157;-88
2022/07/14 02:06:40;;;;;;;660.57;283.73;;;14.80;1.00;;;;;;5032996;28;20262;-88
2022/07/14 02:09:08;;;;;;;660.37;278.90;;;14.80;99.90;;;;;;5033050;28;20207;-88
2022/07/14 02:14:21;;;;;;;659.20;272.20;;;14.60;1.00;;;;;;5032809;28;20195;-87
2022/07/14 02:16:48;;;;;;;662.80;279.57;;;14.60;1.00;;;;;;5032884;28;20686;-88
2022/07/14 02:19:15;;;;;;;663.73;279.80;;;14.50;1.00;;;;;;5032632;28;20654;-88
2022/07/14 02:21:42;;;;;;;661.50;277.37;;;14.60;1.00;;;;;;5032870;28;20555;-87
2022/07/14 02:24:10;;;;;;;664.07;283.27;;;14.50;1.00;;;;;;5032726;28;20231;-88
2022/07/14 02:26:39;;;;;;;665.77;277.23;;;14.40;1.00;;;;;;5032807;28;20578;-88
2022/07/14 02:29:07;;;;;;;664.07;275.27;;;14.40;1.00;;;;;;5032890;28;20233;-87
2022/07/14 02:31:35;;;;;;;669.40;277.20;;;14.40;1.00;;;;;;5032624;28;20550;-88
2022/07/14 02:34:02;;;;;;;665.13;273.90;;;14.30;1.00;;;;;;5032564;28;20190;-87
2022/07/14 02:36:29;;;;;;;665.10;274.10;;;14.30;1.00;;;;;;5032758;28;20197;-88
2022/07/14 02:38:56;;;;;;;662.77;267.07;;;14.30;1.00;;;;;;5033079;28;20205;-88
2022/07/14 02:41:24;;;;;;;664.20;260.03;;;14.30;6.50;;;;;;5032877;28;20199;-88
2022/07/14 02:43:52;;;;;;;664.13;266.87;;;14.30;1.00;;;;;;5032584;28;20199;-88
2022/07/14 02:46:19;;;;;;;660.60;268.77;;;14.20;96.30;;;;;;5032182;28;20224;-88
2022/07/14 02:48:46;;;;;;;656.77;259.83;;;14.20;99.90;;;;;;5032604;28;20197;-88
2022/07/14 02:51:13;;;;;;;660.80;264.97;;;14.20;99.90;;;;;;5032131;28;20186;-88
2022/07/14 02:53:40;;;;;;;652.70;253.10;;;14.20;99.90;;;;;;5032802;28;20212;-87
2022/07/14 02:56:08;;;;;;;660.90;263.13;;;14.20;99.90;;;;;;5032600;28;20592;-88
2022/07/14 02:58:36;;;;;;;666.40;271.00;;;14.20;99.90;;;;;;5032513;28;20196;-87
2022/07/14 03:01:06;;;;;;;659.83;260.40;;;14.20;99.90;;;;;;5032215;28;20194;-88
2022/07/14 03:03:35;;;;;;;660.97;260.50;;;14.10;99.90;;;;;;5032174;28;20530;-89
2022/07/14 03:06:08;;;;;;;654.30;261.00;;;14.10;99.90;;;;;;5036277;28;20594;-88
2022/07/14 03:08:35;;;;;;;659.47;264.20;;;14.10;99.90;;;;;;5045248;28;20213;-87
2022/07/14 03:12:06;;;;;;;659.60;261.10;;;14.10;99.90;;;;;;5038451;28;20353;-92
2022/07/14 03:14:35;;;;;;;659.00;255.83;;;14.10;1.00;;;;;;5030226;28;20200;-93
2022/07/14 03:17:09;;;;;;;655.73;260.20;;;14.10;99.90;;;;;;5035563;28;20241;-94
2022/07/14 03:19:37;;;;;;;661.47;259.03;;;14.10;1.00;;;;;;5034022;28;20198;-88
2022/07/14 03:22:57;;;;;;;655.77;261.80;;;14.00;99.90;;;;;;5038367;28;20192;-92
2022/07/14 03:25:49;;;;;;;648.27;240.60;;;14.10;99.90;;;;;;5035383;28;20241;-92
2022/07/14 03:28:17;;;;;;;656.13;248.83;;;14.10;1.00;;;;;;5035900;28;20627;-89
2022/07/14 03:31:02;;;;;;;653.73;254.10;;;14.10;99.90;;;;;;5039807;28;20184;-90
2022/07/14 03:33:31;;;;;;;650.63;253.20;;;14.20;1.00;;;;;;5034020;28;20550;-87
2022/07/14 03:35:58;;;;;;;654.73;257.50;;;14.20;1.00;;;;;;5038919;28;20203;-90
2022/07/14 03:38:25;;;;;;;657.23;258.57;;;14.30;1.00;;;;;;5039819;28;20193;-91
2022/07/14 03:40:52;;;;;;;656.43;256.20;;;14.40;1.00;;;;;;5035448;28;20194;-91
2022/07/14 03:43:19;;;;;;;655.83;252.07;;;14.50;1.00;;;;;;5033055;28;20207;-89
2022/07/14 03:53:06;;;;;;;662.63;268.57;;;14.80;99.90;;;;;;5061669;28;20535;-94
2022/07/14 03:55:45;;;;;;;663.20;276.83;;;15.20;99.90;;;;;;5069892;28;20303;-93
2022/07/14 03:58:13;;;;;;;667.27;291.60;;;16.00;1.00;;;;;;5056743;28;20552;-90
2022/07/14 04:00:40;;;;;;;676.53;313.47;;;17.10;1.00;;;;;;5089806;28;20201;-89
2022/07/14 04:03:06;;;;;;;;;;;18.10;99.90;;;;;;5085792;28;20200;-88
2022/07/14 04:08:19;;;;;;;;;;;20.00;1.00;;;;;;5079747;28;20600;-89
2022/07/14 04:10:46;;;;;;;;;;;20.80;1.00;;;;;;5084930;28;20176;-90
2022/07/14 04:13:14;;;;;;;;;;;21.60;99.90;;;;;;5086973;28;19916;-90
2022/07/14 04:15:42;;;;;;;715.30;478.50;;;22.50;1.00;;;;;;5075395;28;19924;-91
2022/07/14 04:18:20;;;;;;;;;;;23.30;9.40;;;;;;5075379;28;20592;-94
2022/07/14 04:20:51;;;;;;;715.17;527.30;;;24.00;99.90;;;;;;5079194;28;20356;-89
2022/07/14 04:23:20;;;;;;;722.80;567.27;;;24.70;1.00;;;;;;5088755;28;20283;-90
2022/07/14 04:26:27;;;;;;;732.27;600.00;;;25.10;1.00;;;;;;5081407;28;20219;-93
2022/07/14 04:28:55;;;;;;;734.97;615.13;;;25.40;15.60;;;;;;5077852;28;20180;-89
2022/07/14 04:31:21;;;;;;;;;;;25.90;99.90;;;;;;5081601;28;20188;-92
2022/07/14 04:33:49;;;;;;;760.37;676.70;;;26.40;1.00;;;;;;5078143;28;20056;-92
2022/07/14 04:36:34;;;;;;;;;;;26.90;1.00;;;;;;5076403;28;20644;-92
2022/07/14 04:39:20;;;;;;;787.25;703.25;;;27.40;1.00;;;;;;5075903;28;20043;-92
2022/07/14 04:41:47;;;;;;;;;;;28.00;1.00;;;;;;5075093;28;20214;-90
2022/07/14 04:44:14;;;;;;;813.83;729.20;;;28.40;1.00;;;;;;5074678;28;20064;-91
2022/07/14 04:46:41;;;;;;;827.10;742.15;;;28.80;1.00;;;;;;5076791;28;20192;-88
2022/07/14 04:52:04;;;;;;;862.22;776.33;;;29.30;99.90;;;;;;5076345;28;20184;-88
2022/07/14 04:54:33;;;;;;;;;;;28.90;99.90;;;;;;5074896;28;20105;-88
2022/07/14 04:57:03;;;;;;;866.75;780.83;;;28.60;99.90;;;;;;5073697;28;20195;-88
2022/07/14 04:59:31;;;;;;;861.38;776.13;;;28.50;99.90;;;;;;5074015;28;20200;-89
2022/07/14 05:02:00;;;;;;;860.08;774.63;;;28.70;99.90;;;;;;5074185;28;20194;-88
2022/07/14 05:04:28;;;;;;;863.58;778.20;;;28.70;99.90;;;;;;5074165;28;20254;-88
2022/07/14 05:06:55;;;;;;;864.30;778.58;;;28.90;99.90;;;;;;5075551;28;20204;-88
2022/07/14 05:10:03;;;;;;;872.05;786.50;;;28.90;99.90;;;;;;5080359;28;20188;-93
2022/07/14 05:12:32;;;;;;;875.25;789.47;;;29.30;99.90;;;;;;5073477;28;20196;-88
2022/07/14 05:14:59;;;;;;;887.45;801.45;;;29.70;99.90;;;;;;5073151;28;20200;-89
2022/07/14 05:17:26;;;;;;;894.53;808.45;;;30.10;99.90;;;;;;5071738;28;20090;-89
2022/07/14 05:19:53;;;;;;;911.80;825.58;;;30.70;99.90;;;;;;5075873;28;20203;-87
2022/07/14 05:22:20;;;;;;;912.35;826.22;;;31.10;99.90;;;;;;5073227;28;25082;-87
2022/07/14 05:24:47;;;;;;;927.00;840.28;;;31.40;99.90;;;;;;5073014;28;20216;-88
2022/07/14 05:27:14;;;;;;;947.67;859.45;;;31.60;99.90;;;;;;5072968;28;20207;-87
2022/07/14 05:29:43;;;;;;;946.85;859.75;;;31.90;99.90;;;;;;5074881;28;20177;-90
2022/07/14 05:32:10;;;;;;;958.20;870.55;;;32.20;99.90;;;;;;5073399;28;20200;-88
2022/07/14 05:34:42;;;;;;;987.60;898.70;;;32.70;99.90;;;;;;5071676;28;20199;-87
2022/07/14 05:37:09;;;;;;;980.33;891.85;;;33.00;99.90;;;;;;5072658;28;20514;-87
2022/07/14 05:39:37;;;;;;;989.95;901.03;;;33.40;99.90;;;;;;5073059;28;20192;-87
2022/07/14 05:42:04;;;;;;;784.05;699.92;;;33.60;99.90;;;;;;5072901;28;20733;-87
2022/07/14 05:44:31;;;;;;;843.63;760.58;;;33.90;99.90;;;;;;5073032;28;20188;-87
2022/07/14 05:47:00;;;;;;;998.92;910.75;;;34.20;99.90;;;;;;5072798;28;20199;-87
2022/07/14 05:49:27;;;;;;;994.80;906.83;;;34.50;99.90;;;;;;5072888;28;20241;-87
2022/07/14 05:51:54;;;;;;;998.45;910.40;;;34.60;99.90;;;;;;5072330;28;20188;-87
2022/07/14 05:54:21;;;;;;;1012.67;923.20;;;34.80;99.90;;;;;;5075015;28;20191;-93
2022/07/14 05:56:48;;;;;;;994.22;905.90;;;34.90;99.90;;;;;;5072485;28;20658;-90
2022/07/14 05:59:15;;;;;;;1029.70;940.20;;;35.10;99.90;;;;;;5072419;28;20195;-89
2022/07/14 06:01:42;;;;;;;1032.90;943.58;;;35.40;99.90;;;;;;5072306;28;20570;-89
2022/07/14 06:04:11;;;;;;;1032.68;943.33;;;35.40;99.90;;;;;;5072116;28;20545;-87
2022/07/14 06:06:38;;;;;;;1042.80;952.67;;;35.00;99.90;;;;;;5072009;28;20188;-88
2022/07/14 06:09:05;;;;;;;972.55;883.88;;;34.10;99.90;;;;;;5072612;28;20301;-89
2022/07/14 06:11:32;;;;;;;1019.15;929.50;;;33.10;99.90;;;;;;5078920;28;20197;-88
2022/07/14 06:14:01;;;;;;;1021.00;931.63;;;32.70;99.90;;;;;;5072504;28;20199;-87
2022/07/14 06:16:28;;;;;;;1014.13;925.03;;;32.10;99.90;;;;;;5072599;28;20213;-87
2022/07/14 06:18:56;;;;;;;993.22;904.88;;;31.70;99.90;;;;;;5072511;28;20258;-87
2022/07/14 06:21:24;;;;;;;979.95;892.28;;;31.30;99.90;;;;;;5072136;28;20637;-86
2022/07/14 06:23:52;;;;;;;966.53;879.00;;;30.60;99.90;;;;;;5071583;28;20184;-89
2022/07/14 06:26:19;;;;;;;943.80;856.63;;;29.60;99.90;;;;;;5072236;28;20179;-88
2022/07/14 06:28:47;;;;;;;;;;;28.70;99.90;;;;;;5072451;28;20048;-88
2022/07/14 06:31:14;;;;;;;;;;;27.90;99.90;;;;;;5072437;28;20003;-88
2022/07/14 06:33:41;;;;;;;;;;;27.30;99.90;;;;;;5072459;28;20399;-88
2022/07/14 06:36:11;;;;;;;863.30;778.87;;;26.70;99.90;;;;;;5072980;28;20187;-90
2022/07/14 06:38:39;;;;;;;833.03;749.63;;;26.90;99.90;;;;;;5073460;28;20250;-87
2022/07/14 06:41:07;;;;;;;830.73;747.00;;;27.40;99.90;;;;;;5072119;28;20583;-88
2022/07/14 06:43:34;;;;;;;833.17;749.00;;;27.20;99.90;;;;;;5072158;28;20196;-89
2022/07/14 06:46:01;;;;;;;827.37;743.93;;;27.30;99.90;;;;;;5072246;28;20188;-88
2022/07/14 06:48:28;;;;;;;;;;;28.00;99.90;;;;;;5072100;28;20393;-89
2022/07/14 06:50:55;;;;;;;880.00;794.78;;;29.20;99.90;;;;;;5072149;28;20051;-88
2022/07/14 06:53:24;;;;;;;892.67;807.33;;;30.40;99.90;;;;;;5071842;28;20730;-89
2022/07/14 06:55:52;;;;;;;927.78;841.58;;;31.50;99.90;;;;;;5072351;28;20261;-87
2022/07/14 06:58:19;;;;;;;945.92;858.95;;;32.70;99.90;;;;;;5072194;28;20232;-87
2022/07/14 07:00:46;;;;;;;963.40;875.05;;;32.70;99.90;;;;;;5071668;28;20185;-89
2022/07/14 07:03:13;;;;;;;973.33;884.15;;;32.00;99.90;;;;;;5071979;28;20195;-89
2022/07/14 07:08:25;;;;;;;982.22;893.03;;;32.50;99.90;;;;;;5071759;28;20204;-88
2022/07/14 07:10:56;;;;;;;1001.42;912.55;;;33.00;99.90;;;;;;5071974;28;20200;-89
2022/07/14 07:14:00;;;;;;;1010.30;920.95;;;33.80;99.90;;;;;;5079943;28;20610;-95
2022/07/14 07:16:28;;;;;;;1009.58;919.50;;;33.40;99.90;;;;;;5071880;28;20534;-89
2022/07/14 07:18:56;;;;;;;1010.97;920.72;;;32.20;99.90;;;;;;5073826;28;20283;-88
2022/07/14 07:21:23;;;;;;;1012.50;917.50;;;31.40;99.90;;;;;;5075440;28;20249;-89
2022/07/14 07:23:50;;;;;;;1006.60;916.80;;;31.80;99.90;;;;;;5075403;28;20196;-87
2022/07/14 07:26:21;;;;;;;1008.50;919.15;;;32.50;99.90;;;;;;5075960;28;20540;-86
2022/07/14 07:28:48;;;;;;;1003.10;913.25;;;32.70;99.90;;;;;;5075230;28;20230;-87
2022/07/14 07:31:15;;;;;;;1004.22;912.50;;;32.00;99.90;;;;;;5075397;28;20641;-86
2022/07/14 07:33:42;;;;;;;1004.72;914.83;;;31.60;99.90;;;;;;5075124;28;20645;-87
2022/07/14 07:36:09;;;;;;;1006.50;916.67;;;32.20;99.90;;;;;;5075413;28;20196;-86
2022/07/14 07:38:36;;;;;;;1020.25;930.22;;;33.00;99.90;;;;;;5075720;28;20223;-86
2022/07/14 07:41:03;;;;;;;1021.75;932.38;;;33.90;99.90;;;;;;5075010;28;20199;-86
2022/07/14 07:43:32;;;;;;;1041.15;950.03;;;34.20;99.90;;;;;;5074780;28;20198;-86
2022/07/14 07:45:59;;;;;;;1038.07;947.47;;;33.80;99.90;;;;;;5074902;28;20192;-87
2022/07/14 07:48:26;;;;;;;1046.18;954.53;;;34.10;99.90;;;;;;5075095;28;20215;-87
2022/07/14 07:50:55;;;;;;;1059.32;967.40;;;34.60;99.90;;;;;;5074843;28;20590;-87
2022/07/14 07:53:43;;;;;;;1059.13;967.10;;;35.00;99.90;;;;;;5075170;28;20188;-91
2022/07/14 07:56:10;;;;;;;1064.18;972.10;;;34.80;99.90;;;;;;5075149;28;20290;-88
2022/07/14 07:58:38;;;;;;;1068.70;976.63;;;34.90;99.90;;;;;;5074710;28;20215;-87
2022/07/14 08:01:06;;;;;;;1071.13;979.33;;;35.20;99.90;;;;;;5077538;28;20218;-88
2022/07/14 08:03:33;;;;;;;1075.90;983.05;;;34.90;99.90;;;;;;5074679;28;20203;-87
2022/07/14 08:06:00;;;;;;;1069.00;976.80;;;34.50;99.90;;;;;;5074962;28;20199;-87
2022/07/14 08:08:26;;;;;;;;;;;33.60;99.90;;;;;;5075519;28;19963;-87
2022/07/14 08:10:53;;;;;;;;;;;33.30;99.90;;;;;;5075173;28;19925;-87
2022/07/14 08:13:20;;;;;;;;;;;33.60;99.90;;;;;;5075242;28;19924;-86
2022/07/14 08:15:49;;;;;;;1052.35;960.78;;;34.00;99.90;;;;;;5074687;28;20053;-87
2022/07/14 08:18:16;;;;;;;1054.78;962.88;;;34.30;99.90;;;;;;5074731;28;20265;-86
2022/07/14 08:20:44;;;;;;;1062.15;970.22;;;34.80;99.90;;;;;;5074516;28;20691;-87
2022/07/14 08:23:11;;;;;;;1061.40;969.38;;;35.00;99.90;;;;;;5074556;28;20562;-88
2022/07/14 08:25:38;;;;;;;1068.50;976.20;;;34.60;99.90;;;;;;5074523;28;20683;-86
2022/07/14 08:28:05;;;;;;;1068.88;976.83;;;34.00;99.90;;;;;;5074194;28;20221;-86
2022/07/14 08:30:32;;;;;;;1058.22;966.67;;;34.00;99.90;;;;;;5073553;28;20191;-86
2022/07/14 08:33:01;;;;;;;1060.20;967.42;;;34.30;99.90;;;;;;5073978;28;20188;-87
2022/07/14 08:35:28;;;;;;;1063.47;971.75;;;34.50;99.90;;;;;;5074354;28;20199;-87
2022/07/14 08:37:56;;;;;;;1070.55;978.60;;;34.90;99.90;;;;;;5074228;28;20196;-88
2022/07/14 08:40:25;;;;;;;1073.72;981.47;;;35.30;99.90;;;;;;5073974;28;20191;-87
2022/07/14 08:42:56;;;;;;;1083.47;990.53;;;35.50;99.90;;;;;;5073897;28;20263;-87
2022/07/14 08:45:25;;;;;;;1092.72;996.05;;;35.90;99.90;;;;;;5074212;28;20200;-87
2022/07/14 08:47:53;;;;;;;1087.75;993.72;;;36.20;99.90;;;;;;5073771;28;20223;-87
2022/07/14 08:50:32;;;;;;;1091.30;995.97;;;36.00;99.90;;;;;;5073780;28;20196;-87
2022/07/14 08:53:08;;;;;;;1088.40;994.45;;;35.50;99.90;;;;;;5074753;28;20627;-89
2022/07/14 08:55:35;;;;;;;1090.75;995.60;;;35.40;99.90;;;;;;5083853;28;20210;-89
2022/07/14 08:58:02;;;;;;;1084.05;991.22;;;35.60;99.90;;;;;;5073823;28;20195;-88
2022/07/14 09:00:29;;;;;;;1087.28;993.30;;;35.70;99.90;;;;;;5073571;28;20249;-88
2022/07/14 09:02:56;;;;;;;1084.72;992.22;;;35.50;99.90;;;;;;5073809;28;20241;-88
2022/07/14 09:05:25;;;;;;;1083.15;991.42;;;35.50;99.90;;;;;;5073816;28;20211;-88
2022/07/14 09:07:57;;;;;;;1093.88;997.50;;;35.70;99.90;;;;;;5073437;28;20195;-88
2022/07/14 09:10:26;;;;;;;1093.28;996.75;;;35.80;99.90;;;;;;5073784;28;20176;-88
2022/07/14 09:13:10;;;;;;;1091.43;995.67;;;35.80;99.90;;;;;;5073593;28;20196;-89
2022/07/14 09:15:50;;;;;;;1095.40;997.92;;;36.00;99.90;;;;;;5074849;28;20183;-90
2022/07/14 09:18:27;;;;;;;1101.32;999.28;;;35.90;99.90;;;;;;5094272;28;20215;-91
2022/07/14 09:20:58;;;;;;;1089.47;994.47;;;35.80;99.90;;;;;;5085618;28;20207;-87
2022/07/14 09:23:29;;;;;;;1085.75;992.42;;;35.70;99.90;;;;;;5082420;28;20262;-89
2022/07/14 09:26:12;;;;;;;1094.20;997.38;;;35.20;99.90;;;;;;5072880;28;20676;-88
2022/07/14 09:28:41;;;;;;;1084.82;991.08;;;34.90;99.90;;;;;;5073295;28;20582;-89
2022/07/14 09:31:23;;;;;;;1087.78;993.88;;;34.50;99.90;;;;;;5081007;28;20215;-88
2022/07/14 09:33:51;;;;;;;1077.03;983.85;;;34.30;99.90;;;;;;5073137;28;20192;-85
2022/07/14 09:36:26;;;;;;;1066.25;973.15;;;34.10;99.90;;;;;;5073331;28;20227;-86
2022/07/14 09:38:53;;;;;;;;;;;33.80;99.90;;;;;;5072902;28;20051;-87
2022/07/14 09:41:20;;;;;;;1049.15;957.75;;;33.50;99.90;;;;;;5072458;28;20026;-88
2022/07/14 09:44:21;;;;;;;1037.30;946.22;;;33.00;99.90;;;;;;5072520;28;20538;-88
2022/07/14 09:46:53;;;;;;;1025.32;934.60;;;32.60;99.90;;;;;;4972035;28;20259;-87
2022/07/14 09:49:21;;;;;;;;;;;32.10;99.90;;;;;;4972337;28;20055;-87
2022/07/14 09:52:09;;;;;;;;;;;31.60;99.90;;;;;;5021710;28;19935;-87
2022/07/14 09:54:49;;;;;;;975.35;886.83;;;31.20;99.90;;;;;;5067567;28;20628;-88
2022/07/14 09:57:22;;;;;;;976.03;887.28;;;31.00;99.90;;;;;;5072769;28;20184;-86
2022/07/14 09:59:50;;;;;;;;;;;30.70;99.90;;;;;;5073058;28;20181;-88
2022/07/14 10:02:20;;;;;;;953.90;865.80;;;30.70;99.90;;;;;;5072631;28;20172;-87
2022/07/14 10:07:35;;;;;;;928.00;839.00;;;30.40;99.90;;;;;;5068929;28;20204;-86
2022/07/14 10:10:08;;;;;;;936.20;847.30;;;30.30;99.90;;;;;;5072678;28;20180;-86
2022/07/14 10:12:36;;;;;;;942.47;853.83;;;30.00;99.90;;;;;;5072259;28;20189;-85
2022/07/14 10:15:05;;;;;;;924.43;836.93;;;29.80;99.90;;;;;;5072493;28;20203;-85
2022/07/14 10:17:35;;;;;;;919.33;831.83;;;29.50;99.90;;;;;;5072438;28;20204;-85
2022/07/14 10:20:06;;;;;;;915.33;828.23;;;29.40;99.90;;;;;;5072431;28;20255;-85
2022/07/14 10:22:33;;;;;;;903.37;816.57;;;29.30;99.90;;;;;;5072237;28;20267;-85
2022/07/14 10:25:03;;;;;;;905.27;818.37;;;29.10;99.90;;;;;;5072196;28;20287;-86
2022/07/14 10:27:33;;;;;;;;;;;29.00;99.90;;;;;;5072881;28;20044;-89
2022/07/14 10:30:00;;;;;;;906.73;819.77;;;28.80;99.90;;;;;;5082069;28;20206;-88
2022/07/14 10:32:46;;;;;;;894.73;808.23;;;28.70;99.90;;;;;;5071976;28;20559;-85
2022/07/14 10:35:37;;;;;;;881.67;795.30;;;28.40;99.90;;;;;;5072336;28;20259;-90
2022/07/14 10:38:21;;;;;;;877.33;790.83;;;28.20;99.90;;;;;;5071891;28;20661;-87
2022/07/14 10:41:00;;;;;;;874.93;788.47;;;27.80;99.90;;;;;;5072435;28;20232;-87
2022/07/14 10:43:43;;;;;;;866.83;780.67;;;27.80;99.90;;;;;;5072274;28;20188;-85
2022/07/14 10:46:10;;;;;;;859.33;773.47;;;27.80;99.90;;;;;;5072266;28;20188;-85
2022/07/14 10:48:39;;;;;;;863.07;776.17;;;27.70;99.90;;;;;;5071798;28;20207;-88
2022/07/14 10:51:21;;;;;;;850.07;764.30;;;27.70;99.90;;;;;;5071572;28;20188;-85
2022/07/14 10:54:10;;;;;;;842.27;757.17;;;27.60;99.90;;;;;;5078990;28;20161;-88
2022/07/14 10:56:38;;;;;;;840.53;755.37;;;27.40;99.90;;;;;;5076100;28;20269;-87
2022/07/14 10:59:36;;;;;;;839.53;754.43;;;27.30;99.90;;;;;;5075696;28;20273;-88
2022/07/14 11:02:36;;;;;;;831.77;746.73;;;27.20;99.90;;;;;;5076132;28;20207;-87
2022/07/14 11:05:14;;;;;;;824.17;739.53;;;27.20;99.90;;;;;;5075831;28;20184;-87
2022/07/14 11:07:47;;;;;;;839.93;754.83;;;27.20;99.90;;;;;;5076102;28;20185;-87
2022/07/14 11:11:01;;;;;;;834.13;749.03;;;27.20;99.90;;;;;;5076015;28;20192;-87
2022/07/14 11:13:29;;;;;;;816.27;731.77;;;27.10;99.90;;;;;;5075938;28;20234;-87
2022/07/14 11:16:00;;;;;;;818.40;733.73;;;27.20;99.90;;;;;;5075655;28;20231;-85
2022/07/14 11:18:34;;;;;;;819.00;734.77;;;27.10;99.90;;;;;;5075537;28;20248;-86
2022/07/14 11:21:06;;;;;;;826.10;741.43;;;27.10;99.90;;;;;;5075401;28;20176;-86
2022/07/14 11:23:35;;;;;;;823.37;738.10;;;27.00;99.90;;;;;;5075468;28;20656;-85
2022/07/14 11:26:05;;;;;;;825.67;740.57;;;26.90;99.90;;;;;;5075457;28;20216;-86
2022/07/14 11:28:44;;;;;;;828.33;742.97;;;26.80;99.90;;;;;;5086300;28;20743;-88
2022/07/14 11:31:14;;;;;;;823.97;737.97;;;26.90;99.90;;;;;;5075377;28;20254;-87
2022/07/14 11:36:24;;;;;;;813.53;728.70;;;27.00;99.90;;;;;;5074601;28;20180;-86
2022/07/14 11:39:13;;;;;;;824.73;739.17;;;26.80;99.90;;;;;;5075637;28;20207;-89
2022/07/14 11:41:45;;;;;;;809.67;724.70;;;26.60;99.90;;;;;;5074875;28;20222;-87
2022/07/14 11:44:55;;;;;;;826.00;740.70;;;26.50;99.90;;;;;;5075575;28;20192;-86
2022/07/14 11:47:25;;;;;;;816.57;731.27;;;26.50;99.90;;;;;;5075331;28;20223;-87
2022/07/14 11:49:55;;;;;;;815.33;730.40;;;26.50;99.90;;;;;;5075167;28;20538;-87
2022/07/14 11:52:31;;;;;;;800.70;716.20;;;26.50;99.90;;;;;;5074913;28;20188;-88
2022/07/14 11:55:00;;;;;;;800.57;715.87;;;26.60;99.90;;;;;;5074595;28;20548;-88
2022/07/14 11:57:27;;;;;;;806.03;721.27;;;26.50;99.90;;;;;;5074870;28;20204;-87
2022/07/14 12:00:03;;;;;;;807.23;722.50;;;26.50;99.90;;;;;;5074870;28;20216;-89
2022/07/14 12:02:32;;;;;;;810.43;725.53;;;26.40;99.90;;;;;;5074744;28;20180;-88
2022/07/14 12:05:00;;;;;;;802.17;717.40;;;26.30;99.90;;;;;;5073398;28;20220;-87
2022/07/14 12:07:43;;;;;;;798.47;714.07;;;26.20;99.90;;;;;;5074818;28;20199;-87
2022/07/14 12:10:11;;;;;;;807.50;722.47;;;26.20;99.90;;;;;;5074648;28;20580;-88
2022/07/14 12:12:40;;;;;;;803.30;718.63;;;26.20;99.90;;;;;;5079648;28;20203;-87
2022/07/14 12:15:09;;;;;;;813.90;728.63;;;26.20;99.90;;;;;;5077183;28;20234;-87
2022/07/14 12:17:48;;;;;;;789.53;705.43;;;26.20;99.90;;;;;;5074381;28;20199;-88
2022/07/14 12:20:15;;;;;;;802.33;717.93;;;26.30;99.90;;;;;;5074389;28;20249;-89
2022/07/14 12:22:45;;;;;;;802.80;718.27;;;26.20;99.90;;;;;;5074789;28;20199;-90
2022/07/14 12:25:31;;;;;;;794.73;710.40;;;26.30;99.90;;;;;;5073862;28;20232;-89
2022/07/14 12:28:08;;;;;;;798.63;714.37;;;26.40;99.90;;;;;;5078291;28;20208;-91
2022/07/14 12:30:48;;;;;;;794.57;710.27;;;26.40;99.90;;;;;;5074555;28;20191;-87
2022/07/14 12:33:22;;;;;;;801.03;716.63;;;26.40;99.90;;;;;;5074500;28;20263;-87
2022/07/14 12:35:52;;;;;;;795.40;711.17;;;26.40;99.90;;;;;;5074194;28;20593;-87
2022/07/14 12:38:20;;;;;;;799.90;715.33;;;26.40;99.90;;;;;;5074334;28;20281;-86
2022/07/14 12:40:49;;;;;;;809.97;725.40;;;26.30;99.90;;;;;;5074194;28;20220;-87
2022/07/14 12:43:16;;;;;;;798.77;714.47;;;26.30;99.90;;;;;;5073911;28;20667;-86
2022/07/14 12:46:02;;;;;;;812.03;727.37;;;26.20;99.90;;;;;;5074239;28;20193;-87
2022/07/14 12:48:31;;;;;;;800.13;715.33;;;26.20;99.90;;;;;;5074378;28;20269;-86
2022/07/14 12:51:16;;;;;;;789.60;705.10;;;26.30;99.90;;;;;;5073628;28;20189;-87
2022/07/14 12:53:59;;;;;;;808.67;723.80;;;26.20;99.90;;;;;;5074089;28;20188;-86
2022/07/14 12:56:27;;;;;;;813.13;728.33;;;26.20;99.90;;;;;;5073977;28;20628;-86
2022/07/14 12:58:55;;;;;;;795.57;711.23;;;26.20;99.90;;;;;;5073762;28;20220;-86